sensor_id;sensor_type;location;lat;lon;timestamp;temperature;humidity
3648;DHT22;1840;48.892;15.312;2023-02-15T00:02:09;0.10;97.20
3648;DHT22;1840;48.892;15.312;2023-02-15T00:04:37;0.10;97.30
3648;DHT22;1840;48.892;15.312;2023-02-15T00:07:15;0.10;97.20
3648;DHT22;1840;48.892;15.312;2023-02-15T00:09:45;0.20;97.20
3648;DHT22;1840;48.892;15.312;2023-02-15T00:12:14;0.10;97.20
3648;DHT22;1840;48.892;15.312;2023-02-15T00:14:42;0.10;97.20
3648;DHT22;1840;48.892;15.312;2023-02-15T00:17:11;0.10;97.30
3648;DHT22;1840;48.892;15.312;2023-02-15T00:19:39;0.00;97.20
3648;DHT22;1840;48.892;15.312;2023-02-15T00:22:07;-0.10;97.30
3648;DHT22;1840;48.892;15.312;2023-02-15T00:24:35;-0.10;97.40
3648;DHT22;1840;48.892;15.312;2023-02-15T00:27:03;0.00;97.40
3648;DHT22;1840;48.892;15.312;2023-02-15T00:29:31;-0.10;97.30
3648;DHT22;1840;48.892;15.312;2023-02-15T00:31:59;-0.20;97.40
3648;DHT22;1840;48.892;15.312;2023-02-15T00:34:28;-0.20;97.50
3648;DHT22;1840;48.892;15.312;2023-02-15T00:36:57;-0.10;97.60
3648;DHT22;1840;48.892;15.312;2023-02-15T00:39:25;-0.20;97.60
3648;DHT22;1840;48.892;15.312;2023-02-15T00:41:53;-0.10;97.50
3648;DHT22;1840;48.892;15.312;2023-02-15T00:44:21;-0.10;97.60
3648;DHT22;1840;48.892;15.312;2023-02-15T00:46:49;-0.10;97.50
3648;DHT22;1840;48.892;15.312;2023-02-15T00:49:17;-0.10;97.60
3648;DHT22;1840;48.892;15.312;2023-02-15T00:51:47;-0.10;97.50
3648;DHT22;1840;48.892;15.312;2023-02-15T00:54:15;-0.10;97.40
3648;DHT22;1840;48.892;15.312;2023-02-15T00:56:43;-0.20;97.40
3648;DHT22;1840;48.892;15.312;2023-02-15T00:59:11;-0.20;97.40
3648;DHT22;1840;48.892;15.312;2023-02-15T01:01:39;-0.30;97.60
3648;DHT22;1840;48.892;15.312;2023-02-15T01:04:07;-0.30;97.50
3648;DHT22;1840;48.892;15.312;2023-02-15T01:06:35;-0.30;97.70
3648;DHT22;1840;48.892;15.312;2023-02-15T01:09:04;-0.30;97.60
3648;DHT22;1840;48.892;15.312;2023-02-15T01:11:32;-0.30;97.60
3648;DHT22;1840;48.892;15.312;2023-02-15T01:14:00;-0.30;97.70
3648;DHT22;1840;48.892;15.312;2023-02-15T01:16:29;-0.40;97.60
3648;DHT22;1840;48.892;15.312;2023-02-15T01:18:57;-0.40;97.70
3648;DHT22;1840;48.892;15.312;2023-02-15T01:21:26;-0.50;97.90
3648;DHT22;1840;48.892;15.312;2023-02-15T01:23:54;-0.40;97.90
3648;DHT22;1840;48.892;15.312;2023-02-15T01:26:23;-0.30;97.90
3648;DHT22;1840;48.892;15.312;2023-02-15T01:28:51;-0.30;97.70
3648;DHT22;1840;48.892;15.312;2023-02-15T01:31:20;-0.30;97.70
3648;DHT22;1840;48.892;15.312;2023-02-15T01:33:49;-0.30;97.80
3648;DHT22;1840;48.892;15.312;2023-02-15T01:36:17;-0.40;97.70
3648;DHT22;1840;48.892;15.312;2023-02-15T01:38:45;-0.40;97.70
3648;DHT22;1840;48.892;15.312;2023-02-15T01:41:13;-0.50;97.80
3648;DHT22;1840;48.892;15.312;2023-02-15T01:43:57;-0.50;97.90
3648;DHT22;1840;48.892;15.312;2023-02-15T01:46:28;-0.50;97.80
3648;DHT22;1840;48.892;15.312;2023-02-15T01:49:03;-0.40;97.80
3648;DHT22;1840;48.892;15.312;2023-02-15T01:51:37;-0.40;97.60
3648;DHT22;1840;48.892;15.312;2023-02-15T01:54:10;-0.30;97.60
3648;DHT22;1840;48.892;15.312;2023-02-15T01:56:41;-0.50;97.70
3648;DHT22;1840;48.892;15.312;2023-02-15T01:59:14;-0.50;97.80
3648;DHT22;1840;48.892;15.312;2023-02-15T02:01:43;-0.60;97.90
3648;DHT22;1840;48.892;15.312;2023-02-15T02:04:16;-0.50;97.90
3648;DHT22;1840;48.892;15.312;2023-02-15T02:06:47;-0.60;97.80
3648;DHT22;1840;48.892;15.312;2023-02-15T02:09:15;-0.50;97.90
3648;DHT22;1840;48.892;15.312;2023-02-15T02:11:48;-0.50;97.90
3648;DHT22;1840;48.892;15.312;2023-02-15T02:14:17;-0.40;97.60
3648;DHT22;1840;48.892;15.312;2023-02-15T02:16:53;-0.50;97.80
3648;DHT22;1840;48.892;15.312;2023-02-15T02:20:03;-0.50;98.00
3648;DHT22;1840;48.892;15.312;2023-02-15T02:22:55;-0.60;97.50
3648;DHT22;1840;48.892;15.312;2023-02-15T02:32:26;-0.50;97.80
3648;DHT22;1840;48.892;15.312;2023-02-15T02:35:01;-0.60;97.70
3648;DHT22;1840;48.892;15.312;2023-02-15T02:37:42;-0.60;97.50
3648;DHT22;1840;48.892;15.312;2023-02-15T02:40:18;-0.60;97.50
3648;DHT22;1840;48.892;15.312;2023-02-15T02:42:52;-0.80;97.80
3648;DHT22;1840;48.892;15.312;2023-02-15T02:45:25;-0.70;97.70
3648;DHT22;1840;48.892;15.312;2023-02-15T02:47:56;-0.80;97.90
3648;DHT22;1840;48.892;15.312;2023-02-15T02:50:29;-0.90;97.80
3648;DHT22;1840;48.892;15.312;2023-02-15T02:52:58;-0.80;97.80
3648;DHT22;1840;48.892;15.312;2023-02-15T02:55:30;-0.80;97.70
3648;DHT22;1840;48.892;15.312;2023-02-15T02:58:03;-0.80;97.70
3648;DHT22;1840;48.892;15.312;2023-02-15T03:00:36;-0.70;97.60
3648;DHT22;1840;48.892;15.312;2023-02-15T03:03:11;-0.70;97.70
3648;DHT22;1840;48.892;15.312;2023-02-15T03:05:45;-0.80;97.30
3648;DHT22;1840;48.892;15.312;2023-02-15T03:08:16;-0.80;98.10
3648;DHT22;1840;48.892;15.312;2023-02-15T03:10:48;-0.80;97.80
3648;DHT22;1840;48.892;15.312;2023-02-15T03:13:19;-0.90;97.80
3648;DHT22;1840;48.892;15.312;2023-02-15T03:15:48;-0.90;97.80
3648;DHT22;1840;48.892;15.312;2023-02-15T03:18:38;-0.90;97.60
3648;DHT22;1840;48.892;15.312;2023-02-15T03:21:09;-1.00;97.60
3648;DHT22;1840;48.892;15.312;2023-02-15T03:23:51;-1.20;97.60
3648;DHT22;1840;48.892;15.312;2023-02-15T03:26:21;-1.30;97.90
3648;DHT22;1840;48.892;15.312;2023-02-15T03:28:53;-1.20;98.20
3648;DHT22;1840;48.892;15.312;2023-02-15T03:31:26;-1.10;98.40
3648;DHT22;1840;48.892;15.312;2023-02-15T03:33:58;-1.00;97.90
3648;DHT22;1840;48.892;15.312;2023-02-15T03:36:36;-1.00;97.90
3648;DHT22;1840;48.892;15.312;2023-02-15T03:39:12;-1.00;97.70
3648;DHT22;1840;48.892;15.312;2023-02-15T03:41:48;-1.00;97.70
3648;DHT22;1840;48.892;15.312;2023-02-15T03:44:23;-1.00;97.80
3648;DHT22;1840;48.892;15.312;2023-02-15T03:46:58;-1.10;97.40
3648;DHT22;1840;48.892;15.312;2023-02-15T03:49:32;-1.20;98.20
3648;DHT22;1840;48.892;15.312;2023-02-15T03:52:05;-1.00;97.90
3648;DHT22;1840;48.892;15.312;2023-02-15T03:54:35;-1.00;97.90
3648;DHT22;1840;48.892;15.312;2023-02-15T03:57:12;-0.90;97.60
3648;DHT22;1840;48.892;15.312;2023-02-15T03:59:59;-1.00;97.60
3648;DHT22;1840;48.892;15.312;2023-02-15T04:03:01;-1.10;97.50
3648;DHT22;1840;48.892;15.312;2023-02-15T04:05:31;-1.30;97.60
3648;DHT22;1840;48.892;15.312;2023-02-15T04:08:01;-1.20;98.10
3648;DHT22;1840;48.892;15.312;2023-02-15T04:10:31;-1.20;97.80
3648;DHT22;1840;48.892;15.312;2023-02-15T04:13:16;-1.10;97.80
3648;DHT22;1840;48.892;15.312;2023-02-15T04:15:44;-1.30;97.40
3648;DHT22;1840;48.892;15.312;2023-02-15T04:18:32;-1.40;97.90
3648;DHT22;1840;48.892;15.312;2023-02-15T04:21:18;-1.40;98.20
3648;DHT22;1840;48.892;15.312;2023-02-15T04:24:05;-1.40;97.90
3648;DHT22;1840;48.892;15.312;2023-02-15T04:26:51;-1.40;98.60
3648;DHT22;1840;48.892;15.312;2023-02-15T04:29:20;-1.40;98.10
3648;DHT22;1840;48.892;15.312;2023-02-15T04:31:49;-1.60;98.40
3648;DHT22;1840;48.892;15.312;2023-02-15T04:34:18;-1.50;98.70
3648;DHT22;1840;48.892;15.312;2023-02-15T04:36:46;-1.40;98.70
3648;DHT22;1840;48.892;15.312;2023-02-15T04:39:16;-1.40;98.30
3648;DHT22;1840;48.892;15.312;2023-02-15T04:41:45;-1.40;98.60
3648;DHT22;1840;48.892;15.312;2023-02-15T04:44:14;-1.20;98.30
3648;DHT22;1840;48.892;15.312;2023-02-15T04:46:42;-1.20;97.80
3648;DHT22;1840;48.892;15.312;2023-02-15T04:49:10;-1.30;97.80
3648;DHT22;1840;48.892;15.312;2023-02-15T04:51:38;-1.30;98.00
3648;DHT22;1840;48.892;15.312;2023-02-15T04:54:06;-1.40;97.90
3648;DHT22;1840;48.892;15.312;2023-02-15T04:56:35;-1.50;98.20
3648;DHT22;1840;48.892;15.312;2023-02-15T04:59:05;-1.50;98.20
3648;DHT22;1840;48.892;15.312;2023-02-15T05:01:33;-1.60;98.30
3648;DHT22;1840;48.892;15.312;2023-02-15T05:04:01;-1.60;98.30
3648;DHT22;1840;48.892;15.312;2023-02-15T05:06:30;-1.60;98.40
3648;DHT22;1840;48.892;15.312;2023-02-15T05:08:58;-1.70;98.50
3648;DHT22;1840;48.892;15.312;2023-02-15T05:11:26;-1.50;98.20
3648;DHT22;1840;48.892;15.312;2023-02-15T05:13:55;-1.70;97.90
3648;DHT22;1840;48.892;15.312;2023-02-15T05:16:24;-1.80;98.50
3648;DHT22;1840;48.892;15.312;2023-02-15T05:18:52;-1.60;98.70
3648;DHT22;1840;48.892;15.312;2023-02-15T05:21:20;-1.70;98.60
3648;DHT22;1840;48.892;15.312;2023-02-15T05:23:48;-1.70;98.40
3648;DHT22;1840;48.892;15.312;2023-02-15T05:26:18;-1.60;98.20
3648;DHT22;1840;48.892;15.312;2023-02-15T05:29:02;-1.70;98.30
3648;DHT22;1840;48.892;15.312;2023-02-15T05:31:31;-1.80;98.80
3648;DHT22;1840;48.892;15.312;2023-02-15T05:34:00;-1.80;98.90
3648;DHT22;1840;48.892;15.312;2023-02-15T05:36:30;-1.60;98.70
3648;DHT22;1840;48.892;15.312;2023-02-15T05:38:58;-1.60;98.40
3648;DHT22;1840;48.892;15.312;2023-02-15T05:41:26;-1.60;98.40
3648;DHT22;1840;48.892;15.312;2023-02-15T05:43:55;-1.60;98.40
3648;DHT22;1840;48.892;15.312;2023-02-15T05:46:24;-1.50;98.00
3648;DHT22;1840;48.892;15.312;2023-02-15T05:48:53;-1.50;98.20
3648;DHT22;1840;48.892;15.312;2023-02-15T05:51:20;-1.60;98.00
3648;DHT22;1840;48.892;15.312;2023-02-15T05:53:48;-1.60;98.20
3648;DHT22;1840;48.892;15.312;2023-02-15T05:56:16;-1.50;98.10
3648;DHT22;1840;48.892;15.312;2023-02-15T05:58:44;-1.50;98.20
3648;DHT22;1840;48.892;15.312;2023-02-15T06:01:14;-1.70;97.90
3648;DHT22;1840;48.892;15.312;2023-02-15T06:03:45;-1.70;98.20
3648;DHT22;1840;48.892;15.312;2023-02-15T06:06:13;-1.50;98.20
3648;DHT22;1840;48.892;15.312;2023-02-15T06:08:41;-1.50;98.20
3648;DHT22;1840;48.892;15.312;2023-02-15T06:11:09;-1.70;98.30
3648;DHT22;1840;48.892;15.312;2023-02-15T06:13:37;-1.90;98.60
3648;DHT22;1840;48.892;15.312;2023-02-15T06:16:05;-1.80;98.30
3648;DHT22;1840;48.892;15.312;2023-02-15T06:18:33;-1.70;98.40
3648;DHT22;1840;48.892;15.312;2023-02-15T06:21:03;-1.70;98.40
3648;DHT22;1840;48.892;15.312;2023-02-15T06:23:31;-1.80;98.50
3648;DHT22;1840;48.892;15.312;2023-02-15T06:25:59;-1.80;98.60
3648;DHT22;1840;48.892;15.312;2023-02-15T06:28:27;-1.70;98.60
3648;DHT22;1840;48.892;15.312;2023-02-15T06:30:55;-1.60;98.30
3648;DHT22;1840;48.892;15.312;2023-02-15T06:33:23;-1.60;98.20
3648;DHT22;1840;48.892;15.312;2023-02-15T06:35:52;-1.70;98.60
3648;DHT22;1840;48.892;15.312;2023-02-15T06:38:21;-1.60;98.30
3648;DHT22;1840;48.892;15.312;2023-02-15T06:40:49;-1.60;98.20
3648;DHT22;1840;48.892;15.312;2023-02-15T06:43:17;-1.60;98.10
3648;DHT22;1840;48.892;15.312;2023-02-15T06:45:45;-1.70;98.30
3648;DHT22;1840;48.892;15.312;2023-02-15T06:48:13;-1.70;98.20
3648;DHT22;1840;48.892;15.312;2023-02-15T06:50:41;-1.60;98.30
3648;DHT22;1840;48.892;15.312;2023-02-15T06:53:09;-1.70;98.40
3648;DHT22;1840;48.892;15.312;2023-02-15T06:55:38;-1.60;98.20
3648;DHT22;1840;48.892;15.312;2023-02-15T06:58:06;-1.80;98.10
3648;DHT22;1840;48.892;15.312;2023-02-15T07:00:34;-1.80;98.30
3648;DHT22;1840;48.892;15.312;2023-02-15T07:03:02;-1.90;98.50
3648;DHT22;1840;48.892;15.312;2023-02-15T07:05:33;-1.80;98.30
3648;DHT22;1840;48.892;15.312;2023-02-15T07:08:02;-1.70;98.50
3648;DHT22;1840;48.892;15.312;2023-02-15T07:10:30;-1.60;98.20
3648;DHT22;1840;48.892;15.312;2023-02-15T07:13:00;-1.40;98.10
3648;DHT22;1840;48.892;15.312;2023-02-15T07:15:27;-1.60;98.10
3648;DHT22;1840;48.892;15.312;2023-02-15T07:17:57;-1.80;98.10
3648;DHT22;1840;48.892;15.312;2023-02-15T07:20:25;-1.60;98.50
3648;DHT22;1840;48.892;15.312;2023-02-15T07:22:53;-1.80;97.80
3648;DHT22;1840;48.892;15.312;2023-02-15T07:25:21;-1.80;98.30
3648;DHT22;1840;48.892;15.312;2023-02-15T07:27:55;-1.80;98.40
3648;DHT22;1840;48.892;15.312;2023-02-15T07:30:25;-1.80;98.30
3648;DHT22;1840;48.892;15.312;2023-02-15T07:32:55;-1.60;98.20
3648;DHT22;1840;48.892;15.312;2023-02-15T07:35:46;-2.00;98.00
3648;DHT22;1840;48.892;15.312;2023-02-15T07:38:18;-1.80;98.60
3648;DHT22;1840;48.892;15.312;2023-02-15T07:40:46;-1.80;98.40
3648;DHT22;1840;48.892;15.312;2023-02-15T07:43:14;-1.70;98.40
3648;DHT22;1840;48.892;15.312;2023-02-15T07:45:43;-1.50;98.60
3648;DHT22;1840;48.892;15.312;2023-02-15T07:48:11;-1.50;98.40
3648;DHT22;1840;48.892;15.312;2023-02-15T07:50:39;-1.40;97.90
3648;DHT22;1840;48.892;15.312;2023-02-15T07:53:07;-1.30;98.00
3648;DHT22;1840;48.892;15.312;2023-02-15T07:55:35;-1.20;97.80
3648;DHT22;1840;48.892;15.312;2023-02-15T07:58:03;-1.40;97.40
3648;DHT22;1840;48.892;15.312;2023-02-15T08:00:31;-1.40;97.80
3648;DHT22;1840;48.892;15.312;2023-02-15T08:03:22;-1.40;98.30
3648;DHT22;1840;48.892;15.312;2023-02-15T08:05:56;-1.50;97.80
3648;DHT22;1840;48.892;15.312;2023-02-15T08:08:25;-1.50;97.80
3648;DHT22;1840;48.892;15.312;2023-02-15T08:11:00;-1.40;97.80
3648;DHT22;1840;48.892;15.312;2023-02-15T08:13:47;-1.30;97.70
3648;DHT22;1840;48.892;15.312;2023-02-15T08:16:22;-1.40;97.70
3648;DHT22;1840;48.892;15.312;2023-02-15T08:18:53;-1.30;98.10
3648;DHT22;1840;48.892;15.312;2023-02-15T08:21:21;-1.50;98.00
3648;DHT22;1840;48.892;15.312;2023-02-15T08:23:51;-1.50;98.30
3648;DHT22;1840;48.892;15.312;2023-02-15T08:26:19;-1.30;98.60
3648;DHT22;1840;48.892;15.312;2023-02-15T08:28:47;-1.30;98.30
3648;DHT22;1840;48.892;15.312;2023-02-15T08:31:15;-1.10;98.30
3648;DHT22;1840;48.892;15.312;2023-02-15T08:33:45;-1.10;97.50
3648;DHT22;1840;48.892;15.312;2023-02-15T08:36:16;-1.10;98.20
3648;DHT22;1840;48.892;15.312;2023-02-15T08:38:45;-0.90;97.80
3648;DHT22;1840;48.892;15.312;2023-02-15T08:41:15;-0.80;97.80
3648;DHT22;1840;48.892;15.312;2023-02-15T08:43:44;-0.80;97.80
3648;DHT22;1840;48.892;15.312;2023-02-15T08:46:13;-0.60;97.90
3648;DHT22;1840;48.892;15.312;2023-02-15T08:48:42;-0.60;97.50
3648;DHT22;1840;48.892;15.312;2023-02-15T08:51:12;-0.60;97.60
3648;DHT22;1840;48.892;15.312;2023-02-15T08:53:45;-0.90;97.70
3648;DHT22;1840;48.892;15.312;2023-02-15T08:56:16;-0.60;98.00
3648;DHT22;1840;48.892;15.312;2023-02-15T08:58:44;-0.40;98.00
3648;DHT22;1840;48.892;15.312;2023-02-15T09:01:14;-0.50;97.90
3648;DHT22;1840;48.892;15.312;2023-02-15T09:03:45;-0.30;98.00
3648;DHT22;1840;48.892;15.312;2023-02-15T09:06:14;-0.40;97.60
3648;DHT22;1840;48.892;15.312;2023-02-15T09:08:43;-0.30;97.10
3648;DHT22;1840;48.892;15.312;2023-02-15T09:11:13;-0.50;97.60
3648;DHT22;1840;48.892;15.312;2023-02-15T09:13:43;-0.60;97.20
3648;DHT22;1840;48.892;15.312;2023-02-15T09:16:11;-0.70;97.30
3648;DHT22;1840;48.892;15.312;2023-02-15T09:18:39;-0.80;97.90
3648;DHT22;1840;48.892;15.312;2023-02-15T09:21:09;-0.60;98.00
3648;DHT22;1840;48.892;15.312;2023-02-15T09:23:37;-0.50;97.70
3648;DHT22;1840;48.892;15.312;2023-02-15T09:26:08;-0.40;97.60
3648;DHT22;1840;48.892;15.312;2023-02-15T09:28:37;-0.60;97.60
3648;DHT22;1840;48.892;15.312;2023-02-15T09:31:10;-0.40;97.80
3648;DHT22;1840;48.892;15.312;2023-02-15T09:33:39;-0.30;97.40
3648;DHT22;1840;48.892;15.312;2023-02-15T09:36:15;-0.40;97.60
3648;DHT22;1840;48.892;15.312;2023-02-15T09:38:44;-0.20;97.70
3648;DHT22;1840;48.892;15.312;2023-02-15T09:41:36;0.00;97.70
3648;DHT22;1840;48.892;15.312;2023-02-15T09:44:19;0.00;97.40
3648;DHT22;1840;48.892;15.312;2023-02-15T09:47:11;0.10;97.30
3648;DHT22;1840;48.892;15.312;2023-02-15T09:49:45;0.00;96.80
3648;DHT22;1840;48.892;15.312;2023-02-15T09:52:54;-0.20;97.70
3648;DHT22;1840;48.892;15.312;2023-02-15T09:55:35;0.00;97.20
3648;DHT22;1840;48.892;15.312;2023-02-15T09:58:13;0.10;96.80
3648;DHT22;1840;48.892;15.312;2023-02-15T10:00:49;0.00;97.00
3648;DHT22;1840;48.892;15.312;2023-02-15T10:03:40;0.00;97.50
3648;DHT22;1840;48.892;15.312;2023-02-15T10:06:37;0.00;97.10
3648;DHT22;1840;48.892;15.312;2023-02-15T10:09:28;0.40;97.20
3648;DHT22;1840;48.892;15.312;2023-02-15T10:12:16;0.20;97.10
3648;DHT22;1840;48.892;15.312;2023-02-15T10:15:14;0.20;97.20
3648;DHT22;1840;48.892;15.312;2023-02-15T10:17:54;0.20;97.10
3648;DHT22;1840;48.892;15.312;2023-02-15T10:20:31;0.30;96.90
3648;DHT22;1840;48.892;15.312;2023-02-15T10:23:13;0.40;96.30
3648;DHT22;1840;48.892;15.312;2023-02-15T10:25:47;0.20;97.20
3648;DHT22;1840;48.892;15.312;2023-02-15T10:28:20;0.30;97.00
3648;DHT22;1840;48.892;15.312;2023-02-15T10:30:54;0.40;96.90
3648;DHT22;1840;48.892;15.312;2023-02-15T10:33:38;0.30;97.20
3648;DHT22;1840;48.892;15.312;2023-02-15T10:36:24;0.00;96.10
3648;DHT22;1840;48.892;15.312;2023-02-15T10:39:02;0.10;97.60
3648;DHT22;1840;48.892;15.312;2023-02-15T10:41:39;0.70;97.50
3648;DHT22;1840;48.892;15.312;2023-02-15T10:44:40;0.90;96.20
3648;DHT22;1840;48.892;15.312;2023-02-15T10:47:27;0.70;95.90
3648;DHT22;1840;48.892;15.312;2023-02-15T10:50:10;0.70;97.10
3648;DHT22;1840;48.892;15.312;2023-02-15T10:52:50;0.60;96.00
3648;DHT22;1840;48.892;15.312;2023-02-15T10:55:34;0.00;96.90
3648;DHT22;1840;48.892;15.312;2023-02-15T10:58:10;0.20;97.30
3648;DHT22;1840;48.892;15.312;2023-02-15T11:00:45;0.60;96.90
3648;DHT22;1840;48.892;15.312;2023-02-15T11:03:33;1.00;96.80
3648;DHT22;1840;48.892;15.312;2023-02-15T11:06:05;1.30;96.60
3648;DHT22;1840;48.892;15.312;2023-02-15T11:08:40;1.10;96.10
3648;DHT22;1840;48.892;15.312;2023-02-15T11:11:10;1.30;96.60
3648;DHT22;1840;48.892;15.312;2023-02-15T11:13:44;1.40;96.80
3648;DHT22;1840;48.892;15.312;2023-02-15T11:16:17;1.90;96.40
3648;DHT22;1840;48.892;15.312;2023-02-15T11:18:51;1.90;95.20
3648;DHT22;1840;48.892;15.312;2023-02-15T11:21:22;1.90;95.80
3648;DHT22;1840;48.892;15.312;2023-02-15T11:23:52;1.70;95.80
3648;DHT22;1840;48.892;15.312;2023-02-15T11:26:26;1.40;95.90
3648;DHT22;1840;48.892;15.312;2023-02-15T11:28:59;0.90;96.90
3648;DHT22;1840;48.892;15.312;2023-02-15T11:31:37;1.30;96.30
3648;DHT22;1840;48.892;15.312;2023-02-15T11:34:17;1.30;96.00
3648;DHT22;1840;48.892;15.312;2023-02-15T11:36:49;1.20;96.30
3648;DHT22;1840;48.892;15.312;2023-02-15T11:39:18;1.30;96.50
3648;DHT22;1840;48.892;15.312;2023-02-15T11:41:50;1.20;96.20
3648;DHT22;1840;48.892;15.312;2023-02-15T11:44:23;0.80;96.40
3648;DHT22;1840;48.892;15.312;2023-02-15T11:46:53;0.60;96.50
3648;DHT22;1840;48.892;15.312;2023-02-15T11:49:25;0.60;96.90
3648;DHT22;1840;48.892;15.312;2023-02-15T11:51:55;0.60;97.00
3648;DHT22;1840;48.892;15.312;2023-02-15T11:54:28;0.90;97.10
3648;DHT22;1840;48.892;15.312;2023-02-15T11:57:02;0.90;97.10
3648;DHT22;1840;48.892;15.312;2023-02-15T11:59:34;1.00;97.60
3648;DHT22;1840;48.892;15.312;2023-02-15T12:02:15;1.10;97.30
3648;DHT22;1840;48.892;15.312;2023-02-15T12:04:49;0.80;97.20
3648;DHT22;1840;48.892;15.312;2023-02-15T12:07:23;1.00;97.50
3648;DHT22;1840;48.892;15.312;2023-02-15T12:09:58;1.00;98.00
3648;DHT22;1840;48.892;15.312;2023-02-15T12:12:28;1.20;97.60
3648;DHT22;1840;48.892;15.312;2023-02-15T12:14:58;1.20;97.60
3648;DHT22;1840;48.892;15.312;2023-02-15T12:17:28;1.20;97.80
3648;DHT22;1840;48.892;15.312;2023-02-15T12:20:00;1.50;97.40
3648;DHT22;1840;48.892;15.312;2023-02-15T12:22:31;1.50;97.60
3648;DHT22;1840;48.892;15.312;2023-02-15T12:25:02;1.80;97.50
3648;DHT22;1840;48.892;15.312;2023-02-15T12:27:33;2.00;96.90
3648;DHT22;1840;48.892;15.312;2023-02-15T12:30:05;2.10;97.00
3648;DHT22;1840;48.892;15.312;2023-02-15T12:32:37;2.20;96.50
3648;DHT22;1840;48.892;15.312;2023-02-15T12:35:25;2.40;96.40
3648;DHT22;1840;48.892;15.312;2023-02-15T12:37:56;2.50;96.00
3648;DHT22;1840;48.892;15.312;2023-02-15T12:40:26;2.70;96.20
3648;DHT22;1840;48.892;15.312;2023-02-15T12:42:57;2.60;96.40
3648;DHT22;1840;48.892;15.312;2023-02-15T12:45:27;2.70;95.90
3648;DHT22;1840;48.892;15.312;2023-02-15T12:48:15;2.80;95.60
3648;DHT22;1840;48.892;15.312;2023-02-15T12:50:46;2.80;96.00
3648;DHT22;1840;48.892;15.312;2023-02-15T12:53:22;2.80;96.00
3648;DHT22;1840;48.892;15.312;2023-02-15T12:55:53;2.70;96.10
3648;DHT22;1840;48.892;15.312;2023-02-15T12:58:22;2.70;96.50
3648;DHT22;1840;48.892;15.312;2023-02-15T13:01:10;2.90;96.00
3648;DHT22;1840;48.892;15.312;2023-02-15T13:03:53;3.00;95.80
3648;DHT22;1840;48.892;15.312;2023-02-15T13:06:24;3.10;95.80
3648;DHT22;1840;48.892;15.312;2023-02-15T13:08:54;3.00;95.90
3648;DHT22;1840;48.892;15.312;2023-02-15T13:11:26;3.00;95.70
3648;DHT22;1840;48.892;15.312;2023-02-15T13:13:59;3.00;95.90
3648;DHT22;1840;48.892;15.312;2023-02-15T13:16:31;3.10;95.70
3648;DHT22;1840;48.892;15.312;2023-02-15T13:19:05;2.90;95.70
3648;DHT22;1840;48.892;15.312;2023-02-15T13:21:42;3.00;95.50
3648;DHT22;1840;48.892;15.312;2023-02-15T13:24:18;3.20;95.60
3648;DHT22;1840;48.892;15.312;2023-02-15T13:26:48;3.30;95.60
3648;DHT22;1840;48.892;15.312;2023-02-15T13:29:20;3.40;95.40
3648;DHT22;1840;48.892;15.312;2023-02-15T13:31:49;3.40;94.90
3648;DHT22;1840;48.892;15.312;2023-02-15T13:34:23;3.30;95.00
3648;DHT22;1840;48.892;15.312;2023-02-15T13:36:57;2.90;95.00
3648;DHT22;1840;48.892;15.312;2023-02-15T13:39:33;3.00;95.40
3648;DHT22;1840;48.892;15.312;2023-02-15T13:42:18;3.00;95.30
3648;DHT22;1840;48.892;15.312;2023-02-15T13:45:03;3.20;94.90
3648;DHT22;1840;48.892;15.312;2023-02-15T13:47:40;3.40;95.00
3648;DHT22;1840;48.892;15.312;2023-02-15T13:50:27;3.50;94.70
3648;DHT22;1840;48.892;15.312;2023-02-15T13:53:08;3.40;94.80
3648;DHT22;1840;48.892;15.312;2023-02-15T13:55:42;3.30;94.80
3648;DHT22;1840;48.892;15.312;2023-02-15T13:58:27;3.30;94.90
3648;DHT22;1840;48.892;15.312;2023-02-15T14:01:07;3.40;94.90
3648;DHT22;1840;48.892;15.312;2023-02-15T14:03:48;3.40;94.60
3648;DHT22;1840;48.892;15.312;2023-02-15T14:06:28;3.60;94.70
3648;DHT22;1840;48.892;15.312;2023-02-15T14:09:11;3.60;94.60
3648;DHT22;1840;48.892;15.312;2023-02-15T14:11:50;3.70;94.90
3648;DHT22;1840;48.892;15.312;2023-02-15T14:14:40;3.70;94.50
3648;DHT22;1840;48.892;15.312;2023-02-15T14:17:18;3.80;94.20
3648;DHT22;1840;48.892;15.312;2023-02-15T14:19:51;3.30;94.60
3648;DHT22;1840;48.892;15.312;2023-02-15T14:22:26;3.50;94.70
3648;DHT22;1840;48.892;15.312;2023-02-15T14:25:12;3.50;94.70
3648;DHT22;1840;48.892;15.312;2023-02-15T14:27:54;3.70;94.70
3648;DHT22;1840;48.892;15.312;2023-02-15T14:30:26;3.80;94.30
3648;DHT22;1840;48.892;15.312;2023-02-15T14:33:01;3.90;94.20
3648;DHT22;1840;48.892;15.312;2023-02-15T14:35:32;3.90;94.10
3648;DHT22;1840;48.892;15.312;2023-02-15T14:38:05;3.80;94.10
3648;DHT22;1840;48.892;15.312;2023-02-15T14:40:42;3.90;94.00
3648;DHT22;1840;48.892;15.312;2023-02-15T14:43:37;3.70;93.90
3648;DHT22;1840;48.892;15.312;2023-02-15T14:46:16;3.80;94.10
3648;DHT22;1840;48.892;15.312;2023-02-15T14:48:48;3.60;94.00
3648;DHT22;1840;48.892;15.312;2023-02-15T14:54:54;3.60;94.40
3648;DHT22;1840;48.892;15.312;2023-02-15T14:57:27;3.80;94.50
3648;DHT22;1840;48.892;15.312;2023-02-15T15:00:02;3.50;94.40
3648;DHT22;1840;48.892;15.312;2023-02-15T15:02:43;3.40;94.60
3648;DHT22;1840;48.892;15.312;2023-02-15T15:05:18;3.50;95.00
3648;DHT22;1840;48.892;15.312;2023-02-15T15:07:49;3.60;94.40
3648;DHT22;1840;48.892;15.312;2023-02-15T15:10:39;3.70;94.70
3648;DHT22;1840;48.892;15.312;2023-02-15T15:13:38;3.80;94.60
3648;DHT22;1840;48.892;15.312;2023-02-15T15:19:11;3.60;94.90
3648;DHT22;1840;48.892;15.312;2023-02-15T15:21:56;3.60;94.90
3648;DHT22;1840;48.892;15.312;2023-02-15T15:24:47;3.60;94.90
3648;DHT22;1840;48.892;15.312;2023-02-15T15:37:14;3.50;94.90
3648;DHT22;1840;48.892;15.312;2023-02-15T15:48:52;3.30;95.00
3648;DHT22;1840;48.892;15.312;2023-02-15T15:51:23;3.30;94.90
3648;DHT22;1840;48.892;15.312;2023-02-15T15:53:55;3.30;94.70
3648;DHT22;1840;48.892;15.312;2023-02-15T15:56:27;3.30;94.20
3648;DHT22;1840;48.892;15.312;2023-02-15T15:58:59;3.20;94.30
3648;DHT22;1840;48.892;15.312;2023-02-15T16:01:29;3.20;94.20
3648;DHT22;1840;48.892;15.312;2023-02-15T16:03:59;2.80;94.50
3648;DHT22;1840;48.892;15.312;2023-02-15T16:06:33;2.90;94.30
3648;DHT22;1840;48.892;15.312;2023-02-15T16:09:15;2.80;94.30
3648;DHT22;1840;48.892;15.312;2023-02-15T16:11:45;2.70;94.60
3648;DHT22;1840;48.892;15.312;2023-02-15T16:14:17;2.50;94.60
3648;DHT22;1840;48.892;15.312;2023-02-15T16:16:54;2.50;94.40
3648;DHT22;1840;48.892;15.312;2023-02-15T16:19:26;2.40;94.60
3648;DHT22;1840;48.892;15.312;2023-02-15T16:21:58;2.30;94.70
3648;DHT22;1840;48.892;15.312;2023-02-15T16:24:42;2.30;94.70
3648;DHT22;1840;48.892;15.312;2023-02-15T16:27:30;2.20;94.60
3648;DHT22;1840;48.892;15.312;2023-02-15T16:30:23;2.00;94.90
3648;DHT22;1840;48.892;15.312;2023-02-15T16:33:03;1.70;95.30
3648;DHT22;1840;48.892;15.312;2023-02-15T16:35:32;1.80;95.30
3648;DHT22;1840;48.892;15.312;2023-02-15T16:38:00;1.70;95.00
3648;DHT22;1840;48.892;15.312;2023-02-15T16:40:49;1.50;95.80
3648;DHT22;1840;48.892;15.312;2023-02-15T16:43:24;1.40;95.60
3648;DHT22;1840;48.892;15.312;2023-02-15T16:46:03;1.40;95.80
3648;DHT22;1840;48.892;15.312;2023-02-15T16:48:32;1.20;95.90
3648;DHT22;1840;48.892;15.312;2023-02-15T16:51:01;1.00;96.10
3648;DHT22;1840;48.892;15.312;2023-02-15T16:53:30;1.00;96.10
3648;DHT22;1840;48.892;15.312;2023-02-15T16:56:01;1.10;95.80
3648;DHT22;1840;48.892;15.312;2023-02-15T16:58:36;1.00;95.40
3648;DHT22;1840;48.892;15.312;2023-02-15T17:01:07;0.70;95.90
3648;DHT22;1840;48.892;15.312;2023-02-15T17:03:36;0.70;95.30
3648;DHT22;1840;48.892;15.312;2023-02-15T17:06:19;0.70;95.30